sensor_id;sensor_type;location;lat;lon;timestamp;P1;durP1;ratioP1;P2;durP2;ratioP2
4748;SDS011;2388;53.582;9.962;2023-08-01T00:02:23;3.93;;;3.47;;
4748;SDS011;2388;53.582;9.962;2023-08-01T00:04:49;6.10;;;5.60;;
4748;SDS011;2388;53.582;9.962;2023-08-01T00:07:14;4.73;;;4.43;;
4748;SDS011;2388;53.582;9.962;2023-08-01T00:09:39;7.47;;;6.07;;
4748;SDS011;2388;53.582;9.962;2023-08-01T00:12:05;4.13;;;3.63;;
4748;SDS011;2388;53.582;9.962;2023-08-01T00:14:31;3.13;;;2.77;;
4748;SDS011;2388;53.582;9.962;2023-08-01T00:16:57;2.53;;;2.33;;
4748;SDS011;2388;53.582;9.962;2023-08-01T00:19:23;2.10;;;1.90;;
4748;SDS011;2388;53.582;9.962;2023-08-01T00:21:48;2.33;;;2.23;;
4748;SDS011;2388;53.582;9.962;2023-08-01T00:24:14;3.80;;;2.23;;
4748;SDS011;2388;53.582;9.962;2023-08-01T00:26:39;4.43;;;4.13;;
4748;SDS011;2388;53.582;9.962;2023-08-01T00:29:05;1.93;;;1.83;;
4748;SDS011;2388;53.582;9.962;2023-08-01T00:31:30;3.83;;;2.53;;
4748;SDS011;2388;53.582;9.962;2023-08-01T00:33:56;2.20;;;2.10;;
4748;SDS011;2388;53.582;9.962;2023-08-01T00:36:22;1.30;;;1.20;;
4748;SDS011;2388;53.582;9.962;2023-08-01T00:38:47;1.70;;;1.60;;
4748;SDS011;2388;53.582;9.962;2023-08-01T00:41:13;2.13;;;1.43;;
4748;SDS011;2388;53.582;9.962;2023-08-01T00:43:39;1.70;;;1.60;;
4748;SDS011;2388;53.582;9.962;2023-08-01T00:46:05;1.60;;;1.50;;
4748;SDS011;2388;53.582;9.962;2023-08-01T00:48:31;1.87;;;1.77;;
4748;SDS011;2388;53.582;9.962;2023-08-01T00:50:57;1.50;;;1.40;;
4748;SDS011;2388;53.582;9.962;2023-08-01T00:53:25;1.40;;;1.30;;
4748;SDS011;2388;53.582;9.962;2023-08-01T00:55:52;1.40;;;1.30;;
4748;SDS011;2388;53.582;9.962;2023-08-01T00:58:18;2.27;;;1.60;;
4748;SDS011;2388;53.582;9.962;2023-08-01T01:00:45;1.67;;;1.57;;
4748;SDS011;2388;53.582;9.962;2023-08-01T01:03:11;1.70;;;1.60;;
4748;SDS011;2388;53.582;9.962;2023-08-01T01:05:37;1.40;;;1.30;;
4748;SDS011;2388;53.582;9.962;2023-08-01T01:08:06;1.70;;;1.60;;
4748;SDS011;2388;53.582;9.962;2023-08-01T01:13:54;1.70;;;1.60;;
4748;SDS011;2388;53.582;9.962;2023-08-01T01:16:19;1.40;;;1.30;;
4748;SDS011;2388;53.582;9.962;2023-08-01T01:18:45;1.80;;;1.70;;
4748;SDS011;2388;53.582;9.962;2023-08-01T01:21:11;3.33;;;3.13;;
4748;SDS011;2388;53.582;9.962;2023-08-01T01:23:36;2.77;;;2.60;;
4748;SDS011;2388;53.582;9.962;2023-08-01T01:26:03;2.40;;;2.27;;
4748;SDS011;2388;53.582;9.962;2023-08-01T01:28:31;3.53;;;3.17;;
4748;SDS011;2388;53.582;9.962;2023-08-01T01:30:57;3.27;;;2.97;;
4748;SDS011;2388;53.582;9.962;2023-08-01T01:33:22;3.00;;;2.77;;
4748;SDS011;2388;53.582;9.962;2023-08-01T01:35:48;3.17;;;2.97;;
4748;SDS011;2388;53.582;9.962;2023-08-01T01:38:14;5.80;;;3.50;;
4748;SDS011;2388;53.582;9.962;2023-08-01T01:40:39;3.17;;;2.97;;
4748;SDS011;2388;53.582;9.962;2023-08-01T01:43:05;3.83;;;3.23;;
4748;SDS011;2388;53.582;9.962;2023-08-01T01:45:30;3.60;;;3.23;;
4748;SDS011;2388;53.582;9.962;2023-08-01T01:47:56;4.43;;;3.60;;
4748;SDS011;2388;53.582;9.962;2023-08-01T01:50:21;4.60;;;3.60;;
4748;SDS011;2388;53.582;9.962;2023-08-01T01:52:47;4.30;;;4.00;;
4748;SDS011;2388;53.582;9.962;2023-08-01T01:55:12;4.13;;;3.80;;
4748;SDS011;2388;53.582;9.962;2023-08-01T01:57:38;3.70;;;3.40;;
4748;SDS011;2388;53.582;9.962;2023-08-01T02:00:04;4.70;;;4.30;;
4748;SDS011;2388;53.582;9.962;2023-08-01T02:02:30;4.27;;;3.97;;
4748;SDS011;2388;53.582;9.962;2023-08-01T02:04:55;5.00;;;4.60;;
4748;SDS011;2388;53.582;9.962;2023-08-01T02:07:21;4.83;;;4.37;;
4748;SDS011;2388;53.582;9.962;2023-08-01T02:09:46;5.33;;;4.90;;
4748;SDS011;2388;53.582;9.962;2023-08-01T02:12:12;5.20;;;4.77;;
4748;SDS011;2388;53.582;9.962;2023-08-01T02:14:39;7.23;;;6.00;;
4748;SDS011;2388;53.582;9.962;2023-08-01T02:17:05;6.50;;;6.00;;
4748;SDS011;2388;53.582;9.962;2023-08-01T02:19:31;6.47;;;5.80;;
4748;SDS011;2388;53.582;9.962;2023-08-01T02:21:57;5.47;;;4.97;;
4748;SDS011;2388;53.582;9.962;2023-08-01T02:24:23;6.60;;;6.00;;
4748;SDS011;2388;53.582;9.962;2023-08-01T02:26:49;5.93;;;5.50;;
4748;SDS011;2388;53.582;9.962;2023-08-01T02:29:15;8.00;;;7.40;;
4748;SDS011;2388;53.582;9.962;2023-08-01T02:31:41;7.57;;;6.97;;
4748;SDS011;2388;53.582;9.962;2023-08-01T02:34:06;7.80;;;7.10;;
4748;SDS011;2388;53.582;9.962;2023-08-01T02:36:32;8.17;;;7.37;;
4748;SDS011;2388;53.582;9.962;2023-08-01T02:38:57;6.17;;;5.57;;
4748;SDS011;2388;53.582;9.962;2023-08-01T02:41:23;11.23;;;7.90;;
4748;SDS011;2388;53.582;9.962;2023-08-01T02:43:48;11.17;;;7.50;;
4748;SDS011;2388;53.582;9.962;2023-08-01T02:46:13;9.17;;;8.27;;
4748;SDS011;2388;53.582;9.962;2023-08-01T02:48:39;9.40;;;8.50;;
4748;SDS011;2388;53.582;9.962;2023-08-01T02:51:04;10.00;;;7.83;;
4748;SDS011;2388;53.582;9.962;2023-08-01T02:53:33;14.03;;;8.47;;
4748;SDS011;2388;53.582;9.962;2023-08-01T02:56:00;11.00;;;8.67;;
4748;SDS011;2388;53.582;9.962;2023-08-01T02:58:25;9.60;;;8.73;;
4748;SDS011;2388;53.582;9.962;2023-08-01T03:00:51;11.27;;;8.83;;
4748;SDS011;2388;53.582;9.962;2023-08-01T03:03:16;12.00;;;9.40;;
4748;SDS011;2388;53.582;9.962;2023-08-01T03:05:42;8.93;;;8.10;;
4748;SDS011;2388;53.582;9.962;2023-08-01T03:08:07;10.50;;;9.50;;
4748;SDS011;2388;53.582;9.962;2023-08-01T03:10:33;10.10;;;9.00;;
4748;SDS011;2388;53.582;9.962;2023-08-01T03:12:58;11.50;;;10.27;;
4748;SDS011;2388;53.582;9.962;2023-08-01T03:15:23;11.10;;;10.10;;
4748;SDS011;2388;53.582;9.962;2023-08-01T03:17:49;11.57;;;9.60;;
4748;SDS011;2388;53.582;9.962;2023-08-01T03:20:14;14.10;;;10.47;;
4748;SDS011;2388;53.582;9.962;2023-08-01T03:22:40;12.83;;;10.30;;
4748;SDS011;2388;53.582;9.962;2023-08-01T03:25:06;11.13;;;9.90;;
4748;SDS011;2388;53.582;9.962;2023-08-01T03:27:33;12.20;;;10.90;;
4748;SDS011;2388;53.582;9.962;2023-08-01T03:29:59;11.77;;;10.20;;
4748;SDS011;2388;53.582;9.962;2023-08-01T03:32:24;11.53;;;10.43;;
4748;SDS011;2388;53.582;9.962;2023-08-01T03:34:50;14.33;;;10.43;;
4748;SDS011;2388;53.582;9.962;2023-08-01T03:37:16;10.37;;;9.30;;
4748;SDS011;2388;53.582;9.962;2023-08-01T03:39:41;14.80;;;9.47;;
4748;SDS011;2388;53.582;9.962;2023-08-01T03:42:07;11.77;;;10.57;;
4748;SDS011;2388;53.582;9.962;2023-08-01T03:44:33;16.87;;;10.73;;
4748;SDS011;2388;53.582;9.962;2023-08-01T03:46:58;12.00;;;10.90;;
4748;SDS011;2388;53.582;9.962;2023-08-01T03:49:24;11.13;;;10.07;;
4748;SDS011;2388;53.582;9.962;2023-08-01T03:51:50;16.13;;;10.10;;
4748;SDS011;2388;53.582;9.962;2023-08-01T03:54:15;16.03;;;10.33;;
4748;SDS011;2388;53.582;9.962;2023-08-01T03:56:41;17.23;;;10.07;;
4748;SDS011;2388;53.582;9.962;2023-08-01T03:59:08;10.93;;;9.83;;
4748;SDS011;2388;53.582;9.962;2023-08-01T04:01:35;13.00;;;10.07;;
4748;SDS011;2388;53.582;9.962;2023-08-01T04:04:00;13.70;;;11.27;;
4748;SDS011;2388;53.582;9.962;2023-08-01T04:06:26;12.20;;;10.00;;
4748;SDS011;2388;53.582;9.962;2023-08-01T04:08:51;9.60;;;8.70;;
4748;SDS011;2388;53.582;9.962;2023-08-01T04:11:17;13.43;;;10.27;;
4748;SDS011;2388;53.582;9.962;2023-08-01T04:13:43;14.27;;;9.63;;
4748;SDS011;2388;53.582;9.962;2023-08-01T04:16:08;12.90;;;9.90;;
4748;SDS011;2388;53.582;9.962;2023-08-01T04:18:34;14.77;;;10.30;;
4748;SDS011;2388;53.582;9.962;2023-08-01T04:20:59;10.17;;;9.17;;
4748;SDS011;2388;53.582;9.962;2023-08-01T04:23:25;12.00;;;9.57;;
4748;SDS011;2388;53.582;9.962;2023-08-01T04:25:50;11.27;;;9.30;;
4748;SDS011;2388;53.582;9.962;2023-08-01T04:28:16;13.93;;;9.20;;
4748;SDS011;2388;53.582;9.962;2023-08-01T04:30:41;12.10;;;9.10;;
4748;SDS011;2388;53.582;9.962;2023-08-01T04:33:07;11.30;;;9.53;;
4748;SDS011;2388;53.582;9.962;2023-08-01T04:35:32;12.57;;;9.47;;
4748;SDS011;2388;53.582;9.962;2023-08-01T04:37:58;10.10;;;9.10;;
4748;SDS011;2388;53.582;9.962;2023-08-01T04:40:23;12.30;;;9.80;;
4748;SDS011;2388;53.582;9.962;2023-08-01T04:42:49;10.63;;;9.60;;
4748;SDS011;2388;53.582;9.962;2023-08-01T04:45:14;11.17;;;9.37;;
4748;SDS011;2388;53.582;9.962;2023-08-01T04:47:40;14.37;;;9.97;;
4748;SDS011;2388;53.582;9.962;2023-08-01T04:50:05;10.43;;;9.43;;
4748;SDS011;2388;53.582;9.962;2023-08-01T04:52:31;10.63;;;9.53;;
4748;SDS011;2388;53.582;9.962;2023-08-01T04:54:57;13.60;;;9.97;;
4748;SDS011;2388;53.582;9.962;2023-08-01T04:57:22;15.40;;;10.10;;
4748;SDS011;2388;53.582;9.962;2023-08-01T04:59:48;17.30;;;10.80;;
4748;SDS011;2388;53.582;9.962;2023-08-01T05:02:13;12.13;;;10.53;;
4748;SDS011;2388;53.582;9.962;2023-08-01T05:04:38;16.13;;;11.67;;
4748;SDS011;2388;53.582;9.962;2023-08-01T05:07:04;15.83;;;10.60;;
4748;SDS011;2388;53.582;9.962;2023-08-01T05:09:31;12.17;;;10.93;;
4748;SDS011;2388;53.582;9.962;2023-08-01T05:11:57;16.43;;;10.27;;
4748;SDS011;2388;53.582;9.962;2023-08-01T05:14:22;11.73;;;10.00;;
4748;SDS011;2388;53.582;9.962;2023-08-01T05:16:48;11.87;;;10.27;;
4748;SDS011;2388;53.582;9.962;2023-08-01T05:19:13;10.07;;;8.83;;
4748;SDS011;2388;53.582;9.962;2023-08-01T05:21:39;17.03;;;10.87;;
4748;SDS011;2388;53.582;9.962;2023-08-01T05:24:04;17.53;;;10.77;;
4748;SDS011;2388;53.582;9.962;2023-08-01T05:26:30;10.13;;;8.90;;
4748;SDS011;2388;53.582;9.962;2023-08-01T05:28:55;16.80;;;11.40;;
4748;SDS011;2388;53.582;9.962;2023-08-01T05:31:21;15.20;;;9.77;;
4748;SDS011;2388;53.582;9.962;2023-08-01T05:33:46;15.47;;;9.90;;
4748;SDS011;2388;53.582;9.962;2023-08-01T05:36:12;13.10;;;9.50;;
4748;SDS011;2388;53.582;9.962;2023-08-01T05:38:37;13.87;;;9.93;;
4748;SDS011;2388;53.582;9.962;2023-08-01T05:41:02;11.53;;;9.43;;
4748;SDS011;2388;53.582;9.962;2023-08-01T05:43:28;12.13;;;8.47;;
4748;SDS011;2388;53.582;9.962;2023-08-01T05:45:53;13.00;;;9.33;;
4748;SDS011;2388;53.582;9.962;2023-08-01T05:48:19;10.60;;;8.80;;
4748;SDS011;2388;53.582;9.962;2023-08-01T05:50:46;11.20;;;8.90;;
4748;SDS011;2388;53.582;9.962;2023-08-01T05:53:11;12.33;;;8.77;;
4748;SDS011;2388;53.582;9.962;2023-08-01T05:55:37;14.00;;;9.10;;
4748;SDS011;2388;53.582;9.962;2023-08-01T05:58:02;13.97;;;8.87;;
4748;SDS011;2388;53.582;9.962;2023-08-01T06:00:28;11.17;;;8.60;;
4748;SDS011;2388;53.582;9.962;2023-08-01T06:02:55;12.53;;;8.23;;
4748;SDS011;2388;53.582;9.962;2023-08-01T06:05:21;11.70;;;7.67;;
4748;SDS011;2388;53.582;9.962;2023-08-01T06:07:46;13.60;;;7.57;;
4748;SDS011;2388;53.582;9.962;2023-08-01T06:10:12;9.20;;;7.97;;
4748;SDS011;2388;53.582;9.962;2023-08-01T06:12:37;8.33;;;7.53;;
4748;SDS011;2388;53.582;9.962;2023-08-01T06:15:03;13.50;;;7.90;;
4748;SDS011;2388;53.582;9.962;2023-08-01T06:17:29;11.57;;;7.83;;
4748;SDS011;2388;53.582;9.962;2023-08-01T06:19:55;8.43;;;7.43;;
4748;SDS011;2388;53.582;9.962;2023-08-01T06:22:20;9.20;;;7.23;;
4748;SDS011;2388;53.582;9.962;2023-08-01T06:24:46;9.47;;;8.00;;
4748;SDS011;2388;53.582;9.962;2023-08-01T06:27:11;7.97;;;7.00;;
4748;SDS011;2388;53.582;9.962;2023-08-01T06:29:37;9.93;;;7.73;;
4748;SDS011;2388;53.582;9.962;2023-08-01T06:32:03;9.60;;;7.10;;
4748;SDS011;2388;53.582;9.962;2023-08-01T06:34:29;12.80;;;7.50;;
4748;SDS011;2388;53.582;9.962;2023-08-01T06:36:54;8.37;;;7.00;;
4748;SDS011;2388;53.582;9.962;2023-08-01T06:39:19;9.40;;;6.10;;
4748;SDS011;2388;53.582;9.962;2023-08-01T06:41:45;12.10;;;8.83;;
4748;SDS011;2388;53.582;9.962;2023-08-01T06:44:10;17.47;;;10.60;;
4748;SDS011;2388;53.582;9.962;2023-08-01T06:46:36;7.63;;;6.47;;
4748;SDS011;2388;53.582;9.962;2023-08-01T06:49:01;10.87;;;4.30;;
4748;SDS011;2388;53.582;9.962;2023-08-01T06:51:27;6.63;;;4.13;;
4748;SDS011;2388;53.582;9.962;2023-08-01T06:53:52;10.43;;;4.50;;
4748;SDS011;2388;53.582;9.962;2023-08-01T06:56:18;7.57;;;4.70;;
4748;SDS011;2388;53.582;9.962;2023-08-01T06:58:43;6.30;;;3.90;;
4748;SDS011;2388;53.582;9.962;2023-08-01T07:01:09;4.30;;;3.90;;
4748;SDS011;2388;53.582;9.962;2023-08-01T07:03:35;8.93;;;4.13;;
4748;SDS011;2388;53.582;9.962;2023-08-01T07:06:00;7.37;;;4.37;;
4748;SDS011;2388;53.582;9.962;2023-08-01T07:08:26;4.67;;;4.00;;
4748;SDS011;2388;53.582;9.962;2023-08-01T07:10:51;5.70;;;4.37;;
4748;SDS011;2388;53.582;9.962;2023-08-01T07:13:17;8.60;;;4.20;;
4748;SDS011;2388;53.582;9.962;2023-08-01T07:15:44;10.10;;;3.43;;
4748;SDS011;2388;53.582;9.962;2023-08-01T07:18:10;4.30;;;3.70;;
4748;SDS011;2388;53.582;9.962;2023-08-01T07:20:35;4.00;;;3.23;;
4748;SDS011;2388;53.582;9.962;2023-08-01T07:23:00;4.30;;;3.90;;
4748;SDS011;2388;53.582;9.962;2023-08-01T07:25:26;11.70;;;3.70;;
4748;SDS011;2388;53.582;9.962;2023-08-01T07:27:51;5.10;;;4.60;;
4748;SDS011;2388;53.582;9.962;2023-08-01T07:30:17;4.10;;;3.50;;
4748;SDS011;2388;53.582;9.962;2023-08-01T07:32:42;4.23;;;3.10;;
4748;SDS011;2388;53.582;9.962;2023-08-01T07:35:08;3.30;;;3.10;;
4748;SDS011;2388;53.582;9.962;2023-08-01T07:37:34;5.13;;;2.93;;
4748;SDS011;2388;53.582;9.962;2023-08-01T07:40:00;3.70;;;3.07;;
4748;SDS011;2388;53.582;9.962;2023-08-01T07:42:25;5.33;;;3.30;;
4748;SDS011;2388;53.582;9.962;2023-08-01T07:44:51;6.37;;;4.40;;
4748;SDS011;2388;53.582;9.962;2023-08-01T07:54:00;3.90;;;3.10;;
4748;SDS011;2388;53.582;9.962;2023-08-01T08:02:45;11.90;;;4.47;;
4748;SDS011;2388;53.582;9.962;2023-08-01T08:05:11;8.97;;;3.23;;
4748;SDS011;2388;53.582;9.962;2023-08-01T08:07:37;6.77;;;3.37;;
4748;SDS011;2388;53.582;9.962;2023-08-01T08:10:06;8.03;;;4.07;;
4748;SDS011;2388;53.582;9.962;2023-08-01T08:12:32;6.30;;;3.40;;
4748;SDS011;2388;53.582;9.962;2023-08-01T08:14:57;3.43;;;2.10;;
4748;SDS011;2388;53.582;9.962;2023-08-01T08:17:23;6.30;;;3.10;;
4748;SDS011;2388;53.582;9.962;2023-08-01T08:23:10;10.13;;;2.83;;
4748;SDS011;2388;53.582;9.962;2023-08-01T08:25:39;7.90;;;2.90;;
4748;SDS011;2388;53.582;9.962;2023-08-01T08:28:05;7.33;;;3.30;;
4748;SDS011;2388;53.582;9.962;2023-08-01T08:30:30;6.90;;;3.37;;
4748;SDS011;2388;53.582;9.962;2023-08-01T08:32:57;4.67;;;3.70;;
4748;SDS011;2388;53.582;9.962;2023-08-01T08:35:25;7.47;;;3.70;;
4748;SDS011;2388;53.582;9.962;2023-08-01T08:37:51;9.70;;;3.73;;
4748;SDS011;2388;53.582;9.962;2023-08-01T08:43:38;5.37;;;3.67;;
4748;SDS011;2388;53.582;9.962;2023-08-01T08:49:30;8.60;;;4.50;;
4748;SDS011;2388;53.582;9.962;2023-08-01T09:06:37;13.07;;;4.70;;
4748;SDS011;2388;53.582;9.962;2023-08-01T09:09:11;5.73;;;4.10;;
4748;SDS011;2388;53.582;9.962;2023-08-01T09:15:02;8.33;;;5.00;;
4748;SDS011;2388;53.582;9.962;2023-08-01T09:17:27;4.60;;;3.57;;
4748;SDS011;2388;53.582;9.962;2023-08-01T09:20:05;5.70;;;3.70;;
4748;SDS011;2388;53.582;9.962;2023-08-01T09:22:44;7.17;;;4.93;;
4748;SDS011;2388;53.582;9.962;2023-08-01T09:25:11;4.50;;;3.50;;
4748;SDS011;2388;53.582;9.962;2023-08-01T09:27:37;7.63;;;3.60;;
4748;SDS011;2388;53.582;9.962;2023-08-01T09:30:07;6.37;;;2.97;;
4748;SDS011;2388;53.582;9.962;2023-08-01T09:32:34;4.17;;;3.87;;
4748;SDS011;2388;53.582;9.962;2023-08-01T09:35:00;4.40;;;3.10;;
4748;SDS011;2388;53.582;9.962;2023-08-01T09:37:25;12.53;;;6.37;;
4748;SDS011;2388;53.582;9.962;2023-08-01T09:39:54;8.10;;;5.93;;
4748;SDS011;2388;53.582;9.962;2023-08-01T09:42:20;9.70;;;8.07;;
4748;SDS011;2388;53.582;9.962;2023-08-01T09:44:46;9.90;;;6.10;;
4748;SDS011;2388;53.582;9.962;2023-08-01T09:47:11;5.20;;;4.40;;
4748;SDS011;2388;53.582;9.962;2023-08-01T09:49:46;4.73;;;4.33;;
4748;SDS011;2388;53.582;9.962;2023-08-01T09:52:13;3.23;;;2.93;;
4748;SDS011;2388;53.582;9.962;2023-08-01T09:54:38;5.33;;;2.20;;
4748;SDS011;2388;53.582;9.962;2023-08-01T09:57:04;7.90;;;5.80;;
4748;SDS011;2388;53.582;9.962;2023-08-01T09:59:31;5.47;;;3.93;;
4748;SDS011;2388;53.582;9.962;2023-08-01T10:01:59;2.80;;;2.60;;
4748;SDS011;2388;53.582;9.962;2023-08-01T10:04:27;2.90;;;2.10;;
4748;SDS011;2388;53.582;9.962;2023-08-01T10:06:56;3.90;;;2.20;;
4748;SDS011;2388;53.582;9.962;2023-08-01T10:09:24;6.63;;;2.80;;
4748;SDS011;2388;53.582;9.962;2023-08-01T10:11:50;5.00;;;2.83;;
4748;SDS011;2388;53.582;9.962;2023-08-01T10:14:16;18.43;;;14.13;;
4748;SDS011;2388;53.582;9.962;2023-08-01T10:16:44;18.10;;;15.60;;
4748;SDS011;2388;53.582;9.962;2023-08-01T10:19:10;7.90;;;5.10;;
4748;SDS011;2388;53.582;9.962;2023-08-01T10:21:38;2.80;;;2.60;;
4748;SDS011;2388;53.582;9.962;2023-08-01T10:24:04;2.20;;;2.03;;
4748;SDS011;2388;53.582;9.962;2023-08-01T10:26:31;2.90;;;2.40;;
4748;SDS011;2388;53.582;9.962;2023-08-01T10:28:57;6.10;;;2.00;;
4748;SDS011;2388;53.582;9.962;2023-08-01T10:31:25;8.03;;;2.67;;
4748;SDS011;2388;53.582;9.962;2023-08-01T10:33:50;4.07;;;2.23;;
4748;SDS011;2388;53.582;9.962;2023-08-01T10:36:21;3.60;;;1.70;;
4748;SDS011;2388;53.582;9.962;2023-08-01T10:38:51;3.27;;;1.47;;
4748;SDS011;2388;53.582;9.962;2023-08-01T10:46:51;5.17;;;4.67;;
4748;SDS011;2388;53.582;9.962;2023-08-01T10:49:32;4.50;;;3.70;;
4748;SDS011;2388;53.582;9.962;2023-08-01T10:51:59;4.63;;;3.40;;
4748;SDS011;2388;53.582;9.962;2023-08-01T10:54:25;2.60;;;2.40;;
4748;SDS011;2388;53.582;9.962;2023-08-01T10:56:52;2.00;;;1.80;;
4748;SDS011;2388;53.582;9.962;2023-08-01T10:59:19;1.50;;;1.40;;
4748;SDS011;2388;53.582;9.962;2023-08-01T11:01:46;2.47;;;1.80;;
4748;SDS011;2388;53.582;9.962;2023-08-01T11:04:23;3.90;;;1.40;;
4748;SDS011;2388;53.582;9.962;2023-08-01T11:06:50;2.13;;;0.90;;
4748;SDS011;2388;53.582;9.962;2023-08-01T11:09:21;0.97;;;0.87;;
4748;SDS011;2388;53.582;9.962;2023-08-01T11:11:49;1.00;;;0.90;;
4748;SDS011;2388;53.582;9.962;2023-08-01T11:14:19;1.17;;;1.00;;
4748;SDS011;2388;53.582;9.962;2023-08-01T11:16:49;0.87;;;0.80;;
4748;SDS011;2388;53.582;9.962;2023-08-01T11:19:22;1.97;;;0.70;;
4748;SDS011;2388;53.582;9.962;2023-08-01T11:21:48;1.60;;;1.10;;
4748;SDS011;2388;53.582;9.962;2023-08-01T11:24:13;8.20;;;1.03;;
4748;SDS011;2388;53.582;9.962;2023-08-01T11:26:40;2.10;;;1.00;;
4748;SDS011;2388;53.582;9.962;2023-08-01T11:29:07;1.43;;;1.00;;
4748;SDS011;2388;53.582;9.962;2023-08-01T11:31:32;1.53;;;1.17;;
4748;SDS011;2388;53.582;9.962;2023-08-01T11:33:58;3.00;;;2.00;;
4748;SDS011;2388;53.582;9.962;2023-08-01T11:36:27;22.17;;;14.43;;
4748;SDS011;2388;53.582;9.962;2023-08-01T11:38:54;9.00;;;6.20;;
4748;SDS011;2388;53.582;9.962;2023-08-01T11:41:23;13.90;;;11.77;;
4748;SDS011;2388;53.582;9.962;2023-08-01T11:43:49;4.50;;;3.73;;
4748;SDS011;2388;53.582;9.962;2023-08-01T11:46:16;9.40;;;6.27;;
4748;SDS011;2388;53.582;9.962;2023-08-01T11:48:45;6.80;;;6.20;;
4748;SDS011;2388;53.582;9.962;2023-08-01T11:51:17;4.33;;;2.90;;
4748;SDS011;2388;53.582;9.962;2023-08-01T11:53:43;2.70;;;2.17;;
4748;SDS011;2388;53.582;9.962;2023-08-01T11:56:18;2.43;;;2.10;;
4748;SDS011;2388;53.582;9.962;2023-08-01T11:58:45;4.00;;;1.40;;
4748;SDS011;2388;53.582;9.962;2023-08-01T12:01:11;1.30;;;1.20;;
4748;SDS011;2388;53.582;9.962;2023-08-01T12:06:16;2.40;;;0.90;;
4748;SDS011;2388;53.582;9.962;2023-08-01T12:08:43;1.10;;;1.00;;
4748;SDS011;2388;53.582;9.962;2023-08-01T12:11:19;1.43;;;0.80;;
4748;SDS011;2388;53.582;9.962;2023-08-01T12:13:46;3.80;;;1.30;;
4748;SDS011;2388;53.582;9.962;2023-08-01T12:16:12;1.17;;;0.73;;
4748;SDS011;2388;53.582;9.962;2023-08-01T12:18:40;1.13;;;0.70;;
4748;SDS011;2388;53.582;9.962;2023-08-01T12:21:07;1.43;;;0.70;;
4748;SDS011;2388;53.582;9.962;2023-08-01T12:23:33;1.93;;;0.50;;
4748;SDS011;2388;53.582;9.962;2023-08-01T12:25:58;1.67;;;0.90;;
4748;SDS011;2388;53.582;9.962;2023-08-01T12:28:24;1.27;;;0.80;;
4748;SDS011;2388;53.582;9.962;2023-08-01T12:30:49;1.13;;;0.93;;
4748;SDS011;2388;53.582;9.962;2023-08-01T12:33:16;1.87;;;1.10;;
4748;SDS011;2388;53.582;9.962;2023-08-01T12:35:41;1.43;;;0.70;;
4748;SDS011;2388;53.582;9.962;2023-08-01T12:38:07;1.57;;;0.80;;
4748;SDS011;2388;53.582;9.962;2023-08-01T12:40:33;1.73;;;0.70;;
4748;SDS011;2388;53.582;9.962;2023-08-01T12:42:59;1.10;;;1.00;;
4748;SDS011;2388;53.582;9.962;2023-08-01T12:45:25;1.13;;;0.80;;
4748;SDS011;2388;53.582;9.962;2023-08-01T12:47:50;1.40;;;1.10;;
4748;SDS011;2388;53.582;9.962;2023-08-01T12:50:16;3.63;;;3.27;;
4748;SDS011;2388;53.582;9.962;2023-08-01T12:52:41;11.60;;;7.63;;
4748;SDS011;2388;53.582;9.962;2023-08-01T12:55:07;3.00;;;1.93;;
4748;SDS011;2388;53.582;9.962;2023-08-01T12:57:33;2.10;;;1.47;;
4748;SDS011;2388;53.582;9.962;2023-08-01T12:59:59;1.77;;;1.30;;
4748;SDS011;2388;53.582;9.962;2023-08-01T13:02:26;1.97;;;1.20;;
4748;SDS011;2388;53.582;9.962;2023-08-01T13:04:51;0.90;;;0.90;;
4748;SDS011;2388;53.582;9.962;2023-08-01T13:07:17;4.40;;;1.10;;
4748;SDS011;2388;53.582;9.962;2023-08-01T13:09:42;0.93;;;0.50;;
4748;SDS011;2388;53.582;9.962;2023-08-01T13:12:08;1.40;;;0.70;;
4748;SDS011;2388;53.582;9.962;2023-08-01T13:14:33;1.47;;;0.60;;
4748;SDS011;2388;53.582;9.962;2023-08-01T13:16:59;1.43;;;0.77;;
4748;SDS011;2388;53.582;9.962;2023-08-01T13:19:24;1.93;;;0.80;;
4748;SDS011;2388;53.582;9.962;2023-08-01T13:21:50;0.97;;;0.50;;
4748;SDS011;2388;53.582;9.962;2023-08-01T13:24:16;1.00;;;0.60;;
4748;SDS011;2388;53.582;9.962;2023-08-01T13:26:42;2.17;;;1.00;;
4748;SDS011;2388;53.582;9.962;2023-08-01T13:29:08;1.77;;;0.70;;
4748;SDS011;2388;53.582;9.962;2023-08-01T13:31:34;2.20;;;0.70;;
4748;SDS011;2388;53.582;9.962;2023-08-01T13:33:59;1.00;;;0.70;;
4748;SDS011;2388;53.582;9.962;2023-08-01T13:36:25;13.63;;;10.10;;
4748;SDS011;2388;53.582;9.962;2023-08-01T13:38:50;15.77;;;11.50;;
4748;SDS011;2388;53.582;9.962;2023-08-01T13:41:16;10.83;;;7.47;;
4748;SDS011;2388;53.582;9.962;2023-08-01T13:43:41;10.70;;;9.60;;
4748;SDS011;2388;53.582;9.962;2023-08-01T13:46:09;7.53;;;5.17;;
4748;SDS011;2388;53.582;9.962;2023-08-01T13:48:39;4.27;;;3.87;;
4748;SDS011;2388;53.582;9.962;2023-08-01T13:51:06;3.30;;;3.00;;
4748;SDS011;2388;53.582;9.962;2023-08-01T13:53:31;2.20;;;1.87;;
4748;SDS011;2388;53.582;9.962;2023-08-01T13:55:57;2.00;;;1.90;;
4748;SDS011;2388;53.582;9.962;2023-08-01T13:58:22;1.70;;;1.57;;
4748;SDS011;2388;53.582;9.962;2023-08-01T14:00:47;4.93;;;0.90;;
4748;SDS011;2388;53.582;9.962;2023-08-01T14:03:13;1.43;;;0.77;;
4748;SDS011;2388;53.582;9.962;2023-08-01T14:05:38;1.17;;;1.07;;
4748;SDS011;2388;53.582;9.962;2023-08-01T14:08:04;6.40;;;1.30;;
4748;SDS011;2388;53.582;9.962;2023-08-01T14:10:30;1.37;;;0.63;;
4748;SDS011;2388;53.582;9.962;2023-08-01T14:12:55;1.23;;;0.60;;
4748;SDS011;2388;53.582;9.962;2023-08-01T14:15:21;1.23;;;0.60;;
4748;SDS011;2388;53.582;9.962;2023-08-01T14:17:46;0.70;;;0.40;;
4748;SDS011;2388;53.582;9.962;2023-08-01T14:20:12;1.80;;;0.60;;
4748;SDS011;2388;53.582;9.962;2023-08-01T14:22:37;4.93;;;0.50;;
4748;SDS011;2388;53.582;9.962;2023-08-01T14:25:03;0.70;;;0.40;;
4748;SDS011;2388;53.582;9.962;2023-08-01T14:27:30;1.53;;;0.67;;
4748;SDS011;2388;53.582;9.962;2023-08-01T14:29:56;0.93;;;0.40;;
4748;SDS011;2388;53.582;9.962;2023-08-01T14:32:21;0.80;;;0.40;;
4748;SDS011;2388;53.582;9.962;2023-08-01T14:34:47;1.20;;;0.83;;
4748;SDS011;2388;53.582;9.962;2023-08-01T14:37:12;2.00;;;0.50;;
4748;SDS011;2388;53.582;9.962;2023-08-01T14:39:38;0.70;;;0.40;;
4748;SDS011;2388;53.582;9.962;2023-08-01T14:42:04;0.73;;;0.67;;
4748;SDS011;2388;53.582;9.962;2023-08-01T14:44:29;0.90;;;0.37;;
4748;SDS011;2388;53.582;9.962;2023-08-01T14:46:55;0.80;;;0.50;;
4748;SDS011;2388;53.582;9.962;2023-08-01T14:49:20;1.00;;;0.43;;
4748;SDS011;2388;53.582;9.962;2023-08-01T14:51:47;2.30;;;0.70;;
4748;SDS011;2388;53.582;9.962;2023-08-01T14:54:14;2.33;;;1.37;;
4748;SDS011;2388;53.582;9.962;2023-08-01T14:56:39;3.67;;;0.60;;
4748;SDS011;2388;53.582;9.962;2023-08-01T14:59:05;1.87;;;1.77;;
4748;SDS011;2388;53.582;9.962;2023-08-01T15:01:30;8.97;;;8.03;;
4748;SDS011;2388;53.582;9.962;2023-08-01T15:03:56;2.10;;;1.83;;
4748;SDS011;2388;53.582;9.962;2023-08-01T15:06:21;5.57;;;4.80;;
4748;SDS011;2388;53.582;9.962;2023-08-01T15:08:47;0.83;;;0.80;;
4748;SDS011;2388;53.582;9.962;2023-08-01T15:11:12;4.73;;;3.67;;
4748;SDS011;2388;53.582;9.962;2023-08-01T15:13:38;8.03;;;7.23;;
4748;SDS011;2388;53.582;9.962;2023-08-01T15:16:03;4.60;;;3.73;;
4748;SDS011;2388;53.582;9.962;2023-08-01T15:18:29;3.00;;;1.50;;
4748;SDS011;2388;53.582;9.962;2023-08-01T15:20:55;7.30;;;2.80;;
4748;SDS011;2388;53.582;9.962;2023-08-01T15:23:20;2.27;;;1.00;;
4748;SDS011;2388;53.582;9.962;2023-08-01T15:25:56;5.03;;;1.47;;
4748;SDS011;2388;53.582;9.962;2023-08-01T15:28:23;3.03;;;1.13;;
4748;SDS011;2388;53.582;9.962;2023-08-01T15:30:50;1.00;;;0.90;;
4748;SDS011;2388;53.582;9.962;2023-08-01T15:33:26;2.23;;;0.70;;
4748;SDS011;2388;53.582;9.962;2023-08-01T15:35:52;2.37;;;0.83;;
4748;SDS011;2388;53.582;9.962;2023-08-01T15:38:23;4.00;;;1.17;;
4748;SDS011;2388;53.582;9.962;2023-08-01T15:40:49;1.03;;;0.80;;
4748;SDS011;2388;53.582;9.962;2023-08-01T15:43:17;2.90;;;0.90;;
4748;SDS011;2388;53.582;9.962;2023-08-01T15:45:43;1.03;;;0.50;;
4748;SDS011;2388;53.582;9.962;2023-08-01T15:48:08;1.13;;;0.73;;
4748;SDS011;2388;53.582;9.962;2023-08-01T15:50:34;1.30;;;0.70;;
4748;SDS011;2388;53.582;9.962;2023-08-01T15:52:59;1.53;;;0.90;;
4748;SDS011;2388;53.582;9.962;2023-08-01T15:55:24;1.30;;;0.77;;
4748;SDS011;2388;53.582;9.962;2023-08-01T15:57:50;2.43;;;1.70;;